Latest Weather Forecast - Wednesday 24th November 2021 (6 pm)

Forecast Period: 

6 pm 24th November to 6 am 25th November 2021 

Synopsis:

A weak ridge of high pressure is the dominant feature.

Forecast:

Partly cloudy at first becoming mostly cloudy with showers some of which may be heavy with a chance of isolated thunderstorms.

Weather Advisory:

Residents and motorists in areas prone to flooding and landslides or near rivers and streams should remain alert

Winds:

ENE – E at 10 – 25 km/h (6 – 16 mph)

Sea Conditions:

Slight to moderate in open water; with swells (1.0 – 1.5 m) 

Marine Advisory/Warning:

None

Upcoming Tides:
 High: 09:09 am ****
 Low:

****

05:49 pm

Aviation WX

[Source: ADDS]
METAR
TVSA 301900Z 06012KT 030V100 9999 SHRA BKN014 OVC028 26/25 Q1011 TEMPO SHRA =
TVSA 301700Z 3018/0118 08012KT 9999 SCT018 TEMPO 3018/3024 SHRA BKN012 FEW013CB
TAF
TVSA 301700Z 3018/0118 08012KT 9999 SCT018 TEMPO 3018/3024 SHRA BKN012 FEW013CB =
SR / SS: 10:10 / 21:35 UTC (Sunrise Sunset 2021-11-30)